Time;durP1;ratioP1;P1;durP2;ratioP2;P2;SDS_P1;SDS_P2;PMS_P1;PMS_P2;Temp;Humidity;BMP_temperature;BMP_pressure;BME280_temperature;BME280_humidity;BME280_pressure;Samples;Min_cycle;Max_cycle;Signal;HPM_P1;HPM_P2
2023/06/19 00:00:29;;;;;;;1.90;1.52;;;;;;;25.03;52.74;100529.09;4986477;28;20041;-64
2023/06/19 00:03:15;;;;;;;3.42;1.75;;;;;;;24.98;52.66;100515.91;4995182;28;20030;-63
2023/06/19 00:05:41;;;;;;;2.67;1.55;;;;;;;24.94;53.04;100515.28;4894161;29;20084;-64
2023/06/19 00:08:06;;;;;;;1.70;1.45;;;;;;;24.93;52.69;100524.03;4888827;29;20079;-64
2023/06/19 00:10:33;;;;;;;2.40;1.77;;;;;;;24.98;52.76;100518.66;4886473;29;20049;-64
2023/06/19 00:12:58;;;;;;;2.97;1.90;;;;;;;24.90;53.16;100516.66;4894037;29;20408;-63
2023/06/19 00:15:24;;;;;;;2.90;1.77;;;;;;;24.99;52.95;100513.91;4899854;29;20057;-63
2023/06/19 00:17:49;;;;;;;2.85;1.77;;;;;;;24.90;53.01;100516.66;4904865;29;20055;-63
2023/06/19 00:20:14;;;;;;;2.65;1.45;;;;;;;24.88;53.32;100506.09;4888286;29;20040;-64
2023/06/19 00:22:41;;;;;;;1.67;1.33;;;;;;;25.00;52.80;100512.69;4888969;29;20059;-63
2023/06/19 00:25:06;;;;;;;2.42;1.50;;;;;;;24.91;52.90;100513.44;4888437;29;20563;-62
2023/06/19 00:27:32;;;;;;;2.35;1.67;;;;;;;24.85;53.37;100498.72;4887386;29;20068;-62
2023/06/19 00:30:01;;;;;;;2.45;1.95;;;;;;;24.87;53.12;100509.31;4858462;29;20033;-64
2023/06/19 00:32:30;;;;;;;2.65;1.83;;;;;;;24.87;53.93;100504.53;4896789;29;20859;-64
2023/06/19 00:34:56;;;;;;;2.25;1.40;;;;;;;24.79;54.08;100503.31;4875982;29;20041;-63
2023/06/19 00:37:24;;;;;;;3.08;1.50;;;;;;;24.87;54.18;100503.78;4885677;29;20041;-63
2023/06/19 00:39:50;;;;;;;2.10;1.63;;;;;;;24.81;54.55;100500.09;4870730;29;20047;-64
2023/06/19 00:42:15;;;;;;;2.95;1.70;;;;;;;24.87;53.75;100501.78;4911415;28;20042;-63
2023/06/19 00:44:41;;;;;;;2.97;1.92;;;;;;;24.82;53.80;100502.41;4970213;28;20026;-64
2023/06/19 00:47:07;;;;;;;4.95;1.63;;;;;;;24.78;54.04;100498.25;4974839;28;20061;-63
2023/06/19 00:49:33;;;;;;;3.10;1.80;;;;;;;24.75;54.11;100499.94;4978310;28;20353;-62
2023/06/19 00:51:58;;;;;;;2.50;1.60;;;;;;;24.75;54.08;100504.66;4987712;28;20440;-63
2023/06/19 00:54:25;;;;;;;4.82;1.48;;;;;;;24.71;53.94;100506.78;4969802;28;20026;-63
2023/06/19 00:56:50;;;;;;;2.90;2.08;;;;;;;24.68;53.92;100499.44;4968614;28;20026;-62
2023/06/19 00:59:18;;;;;;;4.75;1.73;;;;;;;24.68;53.97;100486.41;4966152;28;20033;-64
2023/06/19 01:01:45;;;;;;;2.30;1.60;;;;;;;24.77;53.83;100480.97;4976593;28;20034;-64
2023/06/19 01:04:11;;;;;;;2.50;1.80;;;;;;;24.82;53.47;100483.09;4972272;28;20080;-63
2023/06/19 01:06:47;;;;;;;2.35;1.55;;;;;;;24.76;53.59;100475.88;4969653;28;20496;-62
2023/06/19 01:09:16;;;;;;;3.00;1.75;;;;;;;24.82;53.39;100479.56;4985545;28;20080;-63
2023/06/19 01:11:47;;;;;;;3.10;1.77;;;;;;;24.71;53.67;100476.47;4967910;28;20042;-63
2023/06/19 01:14:21;;;;;;;2.80;1.73;;;;;;;24.71;53.50;100468.97;4981836;28;20713;-63
2023/06/19 01:16:47;;;;;;;3.28;1.90;;;;;;;24.63;53.80;100456.69;4985733;28;20050;-64
2023/06/19 01:19:19;;;;;;;2.67;1.77;;;;;;;24.65;53.70;100459.00;4986076;28;20072;-62
2023/06/19 01:21:46;;;;;;;2.08;1.50;;;;;;;24.61;53.66;100455.63;4963114;28;20039;-63
2023/06/19 01:24:11;;;;;;;3.10;1.80;;;;;;;24.71;53.55;100448.91;4992900;28;20137;-63
2023/06/19 01:26:39;;;;;;;2.83;1.60;;;;;;;24.72;53.31;100442.97;4969256;28;20605;-62
2023/06/19 01:29:05;;;;;;;2.67;1.80;;;;;;;24.66;53.63;100433.75;4991442;28;20034;-63
2023/06/19 01:31:42;;;;;;;2.95;1.88;;;;;;;24.58;53.92;100429.00;4965723;28;20038;-63
2023/06/19 01:34:11;;;;;;;2.75;1.58;;;;;;;24.56;54.28;100431.44;4986790;28;20513;-63
2023/06/19 01:36:37;;;;;;;6.80;2.00;;;;;;;24.56;53.98;100432.22;4989252;28;20034;-62
2023/06/19 01:39:23;;;;;;;3.35;1.88;;;;;;;24.48;54.52;100430.97;4979061;28;20034;-63
2023/06/19 01:41:50;;;;;;;2.22;1.80;;;;;;;24.55;54.20;100430.66;4919555;29;20047;-62
2023/06/19 01:44:16;;;;;;;3.05;1.90;;;;;;;24.49;54.31;100440.75;4918114;29;20080;-62
2023/06/19 01:46:48;;;;;;;2.58;1.80;;;;;;;24.37;54.81;100429.84;4936094;29;20039;-63
2023/06/19 01:49:14;;;;;;;3.67;1.85;;;;;;;24.48;54.60;100438.44;4919005;29;20054;-63
2023/06/19 01:52:00;;;;;;;2.08;1.67;;;;;;;24.44;54.67;100429.56;4908827;29;20027;-64
2023/06/19 01:54:26;;;;;;;2.20;1.75;;;;;;;24.36;54.76;100418.06;4851939;29;20559;-63
2023/06/19 01:56:52;;;;;;;3.58;1.95;;;;;;;24.37;55.02;100425.09;4863557;29;20040;-64
2023/06/19 01:59:18;;;;;;;2.60;1.85;;;;;;;24.41;54.96;100431.22;4851721;29;20687;-63
2023/06/19 02:01:43;;;;;;;3.47;1.88;;;;;;;24.36;55.25;100428.31;4853463;29;20076;-64
2023/06/19 02:04:09;;;;;;;2.60;1.80;;;;;;;24.52;54.71;100431.59;4856410;29;20151;-62
2023/06/19 02:06:36;;;;;;;5.35;2.33;;;;;;;24.35;54.70;100427.53;4880257;29;20613;-63
2023/06/19 02:09:21;;;;;;;1.67;1.55;;;;;;;24.30;55.00;100430.88;4853012;29;20045;-63
2023/06/19 02:11:47;;;;;;;2.55;1.77;;;;;;;24.35;55.21;100433.03;4878326;29;20073;-62
2023/06/19 02:14:12;;;;;;;2.67;1.90;;;;;;;24.29;55.31;100425.84;4877934;29;20046;-64
2023/06/19 02:16:38;;;;;;;2.38;1.80;;;;;;;24.27;55.67;100415.28;4882253;29;20107;-64
2023/06/19 02:19:03;;;;;;;3.38;2.08;;;;;;;24.34;55.39;100415.00;4884319;29;20046;-63
2023/06/19 02:21:29;;;;;;;2.83;1.80;;;;;;;24.27;55.60;100411.75;4904302;29;20035;-63
2023/06/19 02:23:58;;;;;;;2.20;1.60;;;;;;;24.28;55.53;100411.31;4901958;29;20071;-64
2023/06/19 02:26:23;;;;;;;4.13;1.95;;;;;;;24.27;55.42;100415.28;4896031;29;20028;-64
2023/06/19 02:28:49;;;;;;;3.17;1.80;;;;;;;24.27;55.49;100404.28;4893057;29;20487;-64
2023/06/19 02:31:15;;;;;;;4.68;1.90;;;;;;;24.28;55.67;100403.03;4907528;29;20463;-64
2023/06/19 02:33:40;;;;;;;5.65;1.90;;;;;;;24.31;55.64;100391.13;4925919;29;20081;-64
2023/06/19 02:36:06;;;;;;;3.30;1.90;;;;;;;24.36;54.90;100396.03;4917131;29;20043;-64
2023/06/19 02:38:32;;;;;;;1.90;1.45;;;;;;;24.03;55.02;100414.25;4931830;29;20067;-64
2023/06/19 02:40:57;;;;;;;3.22;2.00;;;;;;;24.03;55.64;100414.25;4929986;29;20035;-63
2023/06/19 02:43:23;;;;;;;5.43;2.30;;;;;;;24.10;55.51;100417.50;4932158;29;20043;-63
2023/06/19 02:45:48;;;;;;;2.60;1.67;;;;;;;24.21;55.60;100408.06;4929376;29;20154;-63
2023/06/19 02:48:14;;;;;;;2.95;1.73;;;;;;;24.17;55.46;100422.75;4943096;28;20050;-62
2023/06/19 02:50:40;;;;;;;3.38;1.85;;;;;;;24.17;55.46;100421.97;4971054;28;20548;-63
2023/06/19 02:53:05;;;;;;;3.47;2.15;;;;;;;24.16;55.63;100412.94;4983797;28;20046;-63
2023/06/19 02:55:31;;;;;;;2.55;1.90;;;;;;;24.06;55.90;100408.63;4994280;28;20130;-63
2023/06/19 02:57:56;;;;;;;2.22;1.73;;;;;;;24.04;55.75;100419.31;4988888;28;20031;-63
2023/06/19 03:00:22;;;;;;;2.58;1.88;;;;;;;24.05;55.76;100409.84;4989688;28;20509;-63
2023/06/19 03:02:48;;;;;;;2.13;1.77;;;;;;;24.12;55.76;100404.06;4980567;28;20032;-63
2023/06/19 03:05:16;;;;;;;3.80;2.15;;;;;;;24.16;55.78;100401.16;4991845;28;20092;-63
2023/06/19 03:07:43;;;;;;;3.35;2.00;;;;;;;24.18;55.68;100401.47;4991065;28;20493;-63
2023/06/19 03:10:09;;;;;;;3.95;1.77;;;;;;;24.17;55.11;100392.47;4987008;28;20029;-63
2023/06/19 03:12:34;;;;;;;2.22;1.75;;;;;;;24.18;55.54;100395.97;4974855;28;20041;-63
2023/06/19 03:15:00;;;;;;;2.53;1.88;;;;;;;24.14;55.75;100395.34;4964293;28;20041;-63
2023/06/19 03:17:28;;;;;;;3.55;2.20;;;;;;;24.16;55.81;100395.66;4974731;28;20046;-64
2023/06/19 03:19:53;;;;;;;3.17;2.17;;;;;;;24.00;55.54;100395.88;4962032;28;20677;-62
2023/06/19 03:22:19;;;;;;;5.35;1.90;;;;;;;23.96;56.20;100392.50;4960472;28;20026;-62
2023/06/19 03:24:46;;;;;;;4.35;1.92;;;;;;;24.06;55.78;100392.09;4959569;28;20491;-63
2023/06/19 03:27:17;;;;;;;2.53;1.80;;;;;;;24.10;55.87;100391.97;4958890;28;20080;-63
2023/06/19 03:29:43;;;;;;;3.40;2.08;;;;;;;24.07;55.79;100373.63;4971852;28;20125;-63
2023/06/19 03:32:11;;;;;;;3.42;1.90;;;;;;;24.07;55.95;100373.63;4976630;28;20041;-63
2023/06/19 03:34:37;;;;;;;4.03;1.80;;;;;;;24.10;55.82;100378.97;4996858;28;20421;-63
2023/06/19 03:37:06;;;;;;;3.75;2.08;;;;;;;24.07;56.16;100390.13;4956732;28;20030;-63
2023/06/19 03:39:33;;;;;;;2.88;2.00;;;;;;;24.03;56.46;100384.00;4971402;28;20057;-62
2023/06/19 03:42:04;;;;;;;;;;;;;;;24.02;56.80;100383.22;4966064;28;20029;-63
2023/06/19 03:44:30;;;;;;;2.65;1.90;;;;;;;24.04;56.92;100389.03;4965797;28;19929;-64
2023/06/19 03:46:57;;;;;;;4.72;1.90;;;;;;;24.02;56.96;100387.97;4984330;28;20033;-63
2023/06/19 03:49:23;;;;;;;3.55;2.20;;;;;;;24.01;57.23;100378.16;4971579;28;20887;-62
2023/06/19 03:51:49;;;;;;;2.63;1.88;;;;;;;24.03;57.17;100372.97;4989470;28;20038;-64
2023/06/19 03:54:15;;;;;;;4.10;2.17;;;;;;;23.93;57.17;100374.13;4970785;28;20077;-63
2023/06/19 03:56:40;;;;;;;3.80;2.25;;;;;;;24.02;56.69;100374.22;5005116;28;20156;-64
2023/06/19 03:59:06;;;;;;;2.95;1.95;;;;;;;24.11;56.36;100368.75;4990304;28;20085;-63
2023/06/19 04:01:31;;;;;;;3.67;2.10;;;;;;;24.04;56.69;100369.03;4983963;28;21113;-64
2023/06/19 04:03:57;;;;;;;2.92;2.33;;;;;;;24.11;56.92;100365.97;4988340;28;20516;-63
2023/06/19 04:06:22;;;;;;;2.83;1.95;;;;;;;24.04;56.80;100358.75;4975915;28;20038;-63
2023/06/19 04:08:48;;;;;;;2.50;1.90;;;;;;;23.99;57.07;100358.56;4970952;28;20030;-62
2023/06/19 04:11:14;;;;;;;3.05;1.83;;;;;;;23.97;57.51;100363.75;4979234;28;20101;-63
2023/06/19 04:13:39;;;;;;;4.90;2.25;;;;;;;24.08;56.96;100361.38;4987154;28;20038;-63
2023/06/19 04:16:05;;;;;;;3.75;2.13;;;;;;;24.11;56.53;100357.72;4968001;28;20370;-63
2023/06/19 04:18:30;;;;;;;3.20;2.38;;;;;;;24.06;56.31;100353.56;4992923;28;20046;-63
2023/06/19 04:20:56;;;;;;;2.85;1.70;;;;;;;24.10;56.30;100348.69;4989008;28;20073;-62
2023/06/19 04:23:21;;;;;;;3.95;2.38;;;;;;;24.03;56.37;100350.97;4968223;28;20031;-63
2023/06/19 04:25:47;;;;;;;2.40;1.98;;;;;;;24.00;56.70;100360.13;4977650;28;20041;-63
2023/06/19 04:28:12;;;;;;;3.97;2.33;;;;;;;24.01;57.23;100367.13;4979765;28;20030;-64
2023/06/19 04:30:40;;;;;;;2.55;2.00;;;;;;;23.96;57.28;100373.25;4988605;28;20490;-62
2023/06/19 04:33:07;;;;;;;4.07;2.20;;;;;;;23.96;57.54;100365.00;4987481;28;20034;-63
2023/06/19 04:35:39;;;;;;;2.50;1.90;;;;;;;23.95;57.68;100366.97;4977105;28;20039;-63
2023/06/19 04:38:09;;;;;;;2.63;1.88;;;;;;;23.97;56.99;100374.75;4984914;28;20172;-63
2023/06/19 04:40:35;;;;;;;2.53;1.63;;;;;;;23.98;57.54;100374.31;4986256;28;20049;-63
2023/06/19 04:43:05;;;;;;;2.85;2.05;;;;;;;24.00;57.69;100374.63;4983127;28;20019;-62
2023/06/19 04:45:31;;;;;;;3.50;2.08;;;;;;;24.03;57.04;100371.00;4982501;28;20031;-63
2023/06/19 04:47:56;;;;;;;3.00;2.13;;;;;;;23.95;56.35;100377.19;4975074;28;20076;-63
2023/06/19 04:50:22;;;;;;;3.35;2.22;;;;;;;24.04;56.58;100382.78;5007346;23;20582;-61
2023/06/19 04:52:50;;;;;;;3.60;2.10;;;;;;;24.02;56.50;100374.97;4998033;28;20053;-59
2023/06/19 04:55:16;;;;;;;3.47;1.98;;;;;;;24.03;56.11;100378.50;4999692;28;20030;-63
2023/06/19 04:57:41;;;;;;;2.97;2.17;;;;;;;24.09;56.33;100371.94;5001455;28;20038;-60
2023/06/19 05:00:12;;;;;;;2.72;1.95;;;;;;;24.06;56.40;100372.09;4974342;28;20118;-61
2023/06/19 05:02:38;;;;;;;;;;;;;;;23.97;57.09;100363.75;4984273;28;20041;-61
2023/06/19 05:05:03;;;;;;;3.25;1.88;;;;;;;24.02;57.06;100363.94;4976935;28;19917;-61
2023/06/19 05:07:32;;;;;;;2.65;2.15;;;;;;;24.08;56.82;100358.63;4972019;28;20018;-59
2023/06/19 05:09:58;;;;;;;4.85;2.10;;;;;;;24.04;56.88;100360.78;4946903;28;20073;-61
2023/06/19 05:12:44;;;;;;;4.38;2.20;;;;;;;24.01;57.78;100362.41;4981765;28;20093;-59
2023/06/19 05:15:10;;;;;;;4.13;2.05;;;;;;;23.96;58.52;100365.00;4953694;28;20046;-61
2023/06/19 05:17:38;;;;;;;4.50;2.38;;;;;;;23.91;59.76;100360.84;4959834;28;20050;-59
2023/06/19 05:20:06;;;;;;;3.67;1.92;;;;;;;23.89;60.00;100363.28;4959431;28;20429;-61
2023/06/19 05:22:33;;;;;;;2.75;1.98;;;;;;;23.79;58.79;100366.44;4961543;28;20034;-61
2023/06/19 05:24:59;;;;;;;3.72;2.40;;;;;;;23.79;59.50;100364.44;4960916;28;20118;-61
2023/06/19 05:27:25;;;;;;;4.40;2.38;;;;;;;23.81;60.85;100366.75;4943641;28;20124;-61
2023/06/19 05:29:50;;;;;;;4.00;2.15;;;;;;;23.71;59.20;100357.69;4958654;28;20042;-59
2023/06/19 05:32:16;;;;;;;3.15;2.00;;;;;;;23.75;59.37;100352.06;4960693;28;20097;-61
2023/06/19 05:34:41;;;;;;;3.67;1.90;;;;;;;23.82;59.38;100352.56;4959947;28;20038;-61
2023/06/19 05:37:07;;;;;;;3.55;2.33;;;;;;;23.76;59.04;100359.84;4951377;28;20474;-59
2023/06/19 05:39:32;;;;;;;4.88;2.45;;;;;;;23.84;58.44;100360.34;4925051;28;20065;-60
2023/06/19 05:41:58;;;;;;;3.92;2.55;;;;;;;23.87;58.45;100359.44;4958624;28;20039;-59
2023/06/19 05:44:23;;;;;;;2.72;1.77;;;;;;;23.90;58.69;100355.78;4962294;28;20030;-59
2023/06/19 05:46:48;;;;;;;3.30;2.38;;;;;;;23.95;58.37;100360.69;4962862;28;20046;-60
2023/06/19 05:49:14;;;;;;;5.43;2.72;;;;;;;24.04;57.92;100369.03;4955610;28;20041;-60
2023/06/19 05:51:39;;;;;;;3.25;2.20;;;;;;;23.97;58.26;100363.75;4970920;28;20462;-59
2023/06/19 05:54:05;;;;;;;4.32;2.65;;;;;;;23.86;57.77;100375.19;4985364;28;20522;-60
2023/06/19 05:56:51;;;;;;;4.50;2.38;;;;;;;23.83;58.39;100381.59;4986123;28;20632;-60
2023/06/19 05:59:16;;;;;;;4.38;2.35;;;;;;;23.92;58.09;100386.38;4914370;29;20047;-61
2023/06/19 06:01:42;;;;;;;3.90;2.08;;;;;;;23.88;58.74;100385.75;4922756;29;20062;-60
2023/06/19 06:04:07;;;;;;;3.83;2.22;;;;;;;23.82;59.26;100402.06;4925565;29;20071;-61
2023/06/19 06:06:33;;;;;;;3.85;2.45;;;;;;;23.83;59.30;100397.31;4921906;29;20455;-61
2023/06/19 06:08:58;;;;;;;4.18;2.67;;;;;;;23.83;59.58;100408.31;4923395;29;20040;-62
2023/06/19 06:11:23;;;;;;;3.13;2.10;;;;;;;23.87;60.14;100409.72;4909200;29;20052;-61
2023/06/19 06:13:49;;;;;;;3.65;2.10;;;;;;;23.94;60.60;100414.19;4909345;29;20035;-61
2023/06/19 06:16:15;;;;;;;4.00;2.22;;;;;;;23.92;60.46;100413.88;4921975;29;20074;-61
2023/06/19 06:18:41;;;;;;;4.53;2.80;;;;;;;23.88;59.95;100407.75;4924043;29;20051;-60
2023/06/19 06:21:06;;;;;;;3.92;2.55;;;;;;;23.96;59.36;100411.78;4921773;29;20030;-62
2023/06/19 06:23:31;;;;;;;4.93;2.30;;;;;;;23.96;59.29;100414.53;4925327;29;20048;-62
2023/06/19 06:26:01;;;;;;;3.47;2.40;;;;;;;23.97;59.28;100418.78;4927164;29;20051;-61
2023/06/19 06:28:27;;;;;;;4.20;2.53;;;;;;;23.96;58.28;100415.25;4928478;29;20078;-61
2023/06/19 06:30:53;;;;;;;3.60;2.58;;;;;;;23.98;59.01;100417.59;4918258;29;20075;-60
2023/06/19 06:33:19;;;;;;;3.33;2.20;;;;;;;24.03;58.54;100419.78;4928812;29;20115;-59
2023/06/19 06:35:44;;;;;;;5.50;2.58;;;;;;;24.03;59.26;100414.25;4945154;28;20050;-61
2023/06/19 06:38:09;;;;;;;2.97;2.08;;;;;;;24.03;59.67;100415.03;4978024;28;20444;-61
2023/06/19 06:40:35;;;;;;;2.80;2.30;;;;;;;24.07;59.71;100412.16;4985428;28;20595;-61
2023/06/19 06:43:00;;;;;;;3.85;2.03;;;;;;;24.12;59.78;100411.53;4993317;28;20505;-61
2023/06/19 06:45:26;;;;;;;4.90;2.72;;;;;;;24.07;58.95;100412.16;4989658;28;20034;-60
2023/06/19 06:47:51;;;;;;;5.40;2.50;;;;;;;24.03;59.26;100406.00;4977234;28;20069;-61
2023/06/19 06:50:17;;;;;;;4.88;3.28;;;;;;;24.13;60.05;100405.59;4970520;28;20283;-61
2023/06/19 06:52:42;;;;;;;4.88;2.40;;;;;;;24.19;59.79;100403.03;4980244;28;20042;-60
2023/06/19 06:55:08;;;;;;;4.25;2.55;;;;;;;24.17;60.50;100405.47;4987042;28;20022;-59
2023/06/19 06:57:33;;;;;;;4.07;2.55;;;;;;;24.24;61.17;100404.41;4988575;28;20074;-61
2023/06/19 06:59:59;;;;;;;3.38;2.35;;;;;;;24.32;61.62;100403.66;4981584;28;20055;-61
2023/06/19 07:02:24;;;;;;;3.97;2.67;;;;;;;24.39;61.93;100397.88;4974909;28;20053;-60
2023/06/19 07:04:50;;;;;;;3.40;2.03;;;;;;;24.47;61.11;100401.88;4987477;28;20438;-61
2023/06/19 07:07:15;;;;;;;5.05;2.92;;;;;;;24.45;60.37;100398.81;4985655;28;20344;-59
2023/06/19 07:09:41;;;;;;;3.80;2.08;;;;;;;24.47;59.99;100406.59;4983162;28;20088;-60
2023/06/19 07:12:07;;;;;;;6.22;2.88;;;;;;;24.50;60.74;100409.25;4981334;28;20074;-59
2023/06/19 07:14:32;;;;;;;3.25;2.30;;;;;;;24.52;60.15;100409.53;4989146;28;20684;-61
2023/06/19 07:16:58;;;;;;;3.97;2.85;;;;;;;24.49;60.16;100404.16;4983921;28;20034;-61
2023/06/19 07:19:23;;;;;;;3.75;2.22;;;;;;;24.49;60.08;100382.13;4988780;28;20046;-61
2023/06/19 07:21:52;;;;;;;4.55;2.75;;;;;;;24.48;60.18;100380.59;4983708;28;20112;-61
2023/06/19 07:24:18;;;;;;;7.30;2.63;;;;;;;24.45;59.60;100368.50;4989377;28;20137;-62
2023/06/19 07:26:46;;;;;;;3.45;2.35;;;;;;;24.51;59.25;100374.94;4978024;28;20109;-61
2023/06/19 07:29:12;;;;;;;4.38;2.28;;;;;;;24.52;58.64;100371.00;4980686;28;20066;-63
2023/06/19 07:31:38;;;;;;;4.15;2.50;;;;;;;24.45;59.13;100376.03;4982117;28;20133;-64
2023/06/19 07:34:03;;;;;;;3.70;2.60;;;;;;;24.32;59.12;100383.63;4980758;28;20042;-61
2023/06/19 07:36:29;;;;;;;3.47;2.45;;;;;;;24.30;59.74;100384.09;4981639;28;20029;-60
2023/06/19 07:38:55;;;;;;;3.72;2.65;;;;;;;24.31;60.12;100398.63;4982145;28;20046;-61
2023/06/19 07:41:20;;;;;;;4.43;2.63;;;;;;;24.30;61.92;100400.59;4976089;28;20034;-62
2023/06/19 07:43:46;;;;;;;5.88;2.58;;;;;;;24.31;61.99;100399.41;4976632;28;20034;-63
2023/06/19 07:46:11;;;;;;;10.52;3.30;;;;;;;24.36;61.95;100400.75;4980737;28;20400;-62
2023/06/19 07:48:37;;;;;;;3.95;2.65;;;;;;;24.40;61.73;100401.38;4991271;28;20038;-63
2023/06/19 07:51:02;;;;;;;4.55;2.78;;;;;;;24.49;61.16;100399.44;4988643;28;20046;-62
2023/06/19 07:53:28;;;;;;;4.47;2.60;;;;;;;24.44;61.43;100411.06;4985160;28;20034;-61
2023/06/19 07:55:53;;;;;;;2.95;2.30;;;;;;;24.40;61.17;100407.69;4986306;28;20062;-61
2023/06/19 07:58:18;;;;;;;6.32;3.03;;;;;;;24.49;60.55;100412.41;4972906;28;20117;-62
2023/06/19 08:00:44;;;;;;;4.32;2.58;;;;;;;24.45;61.23;100423.59;4972746;28;20038;-61
2023/06/19 08:03:10;;;;;;;6.18;2.47;;;;;;;24.48;61.60;100419.16;4971583;28;20093;-61
2023/06/19 08:05:35;;;;;;;4.57;2.88;;;;;;;24.53;61.39;100413.03;4978664;28;20508;-62
2023/06/19 08:08:01;;;;;;;4.00;2.53;;;;;;;24.53;61.65;100422.09;4981035;28;20030;-62
2023/06/19 08:10:27;;;;;;;4.00;2.85;;;;;;;24.57;61.42;100421.94;4977404;28;20327;-62
2023/06/19 08:12:52;;;;;;;4.90;3.15;;;;;;;24.67;61.72;100404.97;4973049;28;20535;-61
2023/06/19 08:15:17;;;;;;;4.00;2.65;;;;;;;24.82;62.48;100422.47;4972417;28;20035;-62
2023/06/19 08:17:43;;;;;;;5.97;3.17;;;;;;;24.92;61.59;100412.22;4980669;28;20125;-63
2023/06/19 08:20:09;;;;;;;4.60;2.88;;;;;;;25.01;61.44;100407.47;4976229;28;20117;-61
2023/06/19 08:22:38;;;;;;;4.50;2.85;;;;;;;25.14;61.14;100418.38;4982784;28;20026;-61
2023/06/19 08:25:05;;;;;;;3.65;2.65;;;;;;;25.34;61.49;100410.38;4972074;28;20043;-62
2023/06/19 08:27:31;;;;;;;4.40;2.78;;;;;;;25.63;60.22;100412.66;4980539;28;20031;-60
2023/06/19 08:29:56;;;;;;;5.72;3.08;;;;;;;25.79;59.84;100412.31;4987897;28;20456;-63
2023/06/19 08:32:22;;;;;;;7.32;2.65;;;;;;;25.93;58.58;100417.19;4991079;28;20457;-62
2023/06/19 08:34:47;;;;;;;4.90;2.85;;;;;;;25.79;59.13;100413.06;4973493;28;20026;-60
2023/06/19 08:37:13;;;;;;;3.95;2.67;;;;;;;25.87;59.59;100416.28;4984818;28;20493;-62
2023/06/19 08:39:39;;;;;;;5.50;2.72;;;;;;;25.96;59.95;100407.22;4976687;28;20034;-61
2023/06/19 08:42:08;;;;;;;5.15;2.60;;;;;;;26.05;59.56;100413.44;4973150;28;20041;-61
2023/06/19 08:44:35;;;;;;;5.50;2.75;;;;;;;26.28;58.74;100407.25;4983535;28;20038;-63
2023/06/19 08:47:05;;;;;;;4.55;2.78;;;;;;;26.61;58.67;100399.69;4972351;28;20022;-63
2023/06/19 08:49:33;;;;;;;5.97;3.30;;;;;;;26.86;58.27;100405.97;4984561;28;20038;-62
2023/06/19 08:51:58;;;;;;;4.32;3.05;;;;;;;26.87;55.24;100413.78;4984114;28;20039;-62
2023/06/19 08:54:25;;;;;;;4.80;2.63;;;;;;;27.18;53.50;100405.09;4986303;28;20042;-61
2023/06/19 08:56:53;;;;;;;4.82;2.95;;;;;;;27.09;53.17;100410.72;4990717;28;20080;-60
2023/06/19 08:59:20;;;;;;;4.65;2.85;;;;;;;27.18;54.36;100407.84;4986320;28;20061;-61
2023/06/19 09:01:53;;;;;;;4.15;2.63;;;;;;;27.40;54.01;100416.59;4990842;28;20062;-62
2023/06/19 09:04:26;;;;;;;3.47;2.50;;;;;;;27.71;54.31;100421.66;4971098;28;20030;-63
2023/06/19 09:06:55;;;;;;;5.22;2.75;;;;;;;27.94;51.23;100416.06;4985121;28;20041;-63
2023/06/19 09:09:23;;;;;;;3.47;2.38;;;;;;;27.94;51.44;100415.25;4989433;28;20389;-62
2023/06/19 09:11:57;;;;;;;3.72;2.83;;;;;;;27.92;51.22;100418.50;4988579;28;20061;-63
2023/06/19 09:14:49;;;;;;;6.50;2.88;;;;;;;28.07;51.74;100418.50;4984675;28;20046;-62
2023/06/19 09:17:20;;;;;;;3.80;2.67;;;;;;;27.84;51.59;100417.38;4970554;28;20042;-62
2023/06/19 09:19:52;;;;;;;3.15;2.33;;;;;;;27.68;51.83;100413.06;4988318;28;20062;-62
2023/06/19 09:22:20;;;;;;;4.10;2.33;;;;;;;27.94;51.13;100409.72;4972025;28;20034;-62
2023/06/19 09:24:47;;;;;;;2.97;2.40;;;;;;;27.88;52.56;100406.84;4990759;28;20105;-62
2023/06/19 09:27:19;;;;;;;3.60;2.50;;;;;;;27.84;52.11;100400.75;4986446;28;20065;-63
2023/06/19 09:29:49;;;;;;;4.57;2.50;;;;;;;27.83;52.29;100406.78;4984138;28;20232;-60
2023/06/19 09:32:23;;;;;;;3.87;2.33;;;;;;;28.15;52.85;100398.25;4991127;28;20034;-62
2023/06/19 09:34:53;;;;;;;3.83;2.55;;;;;;;28.09;52.56;100410.47;4973885;28;20057;-62
2023/06/19 09:37:24;;;;;;;4.60;2.92;;;;;;;28.26;51.33;100400.44;4987207;28;20042;-61
2023/06/19 09:40:11;;;;;;;3.25;2.63;;;;;;;28.55;52.29;100402.34;4986851;28;20037;-63
2023/06/19 09:42:42;;;;;;;4.05;2.60;;;;;;;28.81;50.36;100400.41;4991340;28;20539;-61
2023/06/19 09:45:19;;;;;;;4.78;2.47;;;;;;;28.86;48.47;100405.28;4983650;28;20037;-63
2023/06/19 09:47:46;;;;;;;3.47;2.40;;;;;;;28.90;49.10;100411.38;4990982;28;20026;-62
2023/06/19 09:50:14;;;;;;;5.00;2.30;;;;;;;28.75;49.41;100411.44;4984770;28;20505;-62
2023/06/19 09:52:44;;;;;;;3.83;2.50;;;;;;;28.55;50.34;100402.34;4969441;28;20039;-62
2023/06/19 09:55:14;;;;;;;3.85;2.15;;;;;;;28.86;49.40;100408.03;4967437;28;20038;-62
2023/06/19 09:57:41;;;;;;;4.20;2.55;;;;;;;28.58;49.86;100407.69;4976913;28;20034;-61
2023/06/19 10:00:12;;;;;;;6.22;2.40;;;;;;;28.88;49.41;100408.31;4985487;28;20378;-62
2023/06/19 10:02:42;;;;;;;3.30;2.33;;;;;;;28.84;49.74;100410.53;4990378;28;20124;-61
2023/06/19 10:05:14;;;;;;;4.30;2.60;;;;;;;28.90;49.00;100403.78;4983829;28;20061;-63
2023/06/19 10:07:42;;;;;;;5.22;2.58;;;;;;;29.00;48.72;100398.84;4988043;28;20030;-62
2023/06/19 10:10:12;;;;;;;3.50;2.47;;;;;;;28.96;49.27;100404.63;4990769;28;20030;-62
2023/06/19 10:12:39;;;;;;;3.55;2.53;;;;;;;29.06;48.73;100403.22;4983361;28;20569;-62
2023/06/19 10:15:13;;;;;;;3.75;2.38;;;;;;;29.11;48.68;100410.09;4990205;28;20054;-63
2023/06/19 10:17:43;;;;;;;5.38;2.88;;;;;;;28.81;48.52;100408.72;4988112;28;20054;-60
2023/06/19 10:20:21;;;;;;;5.75;2.58;;;;;;;28.80;48.41;100407.22;4991144;28;20553;-63
2023/06/19 10:22:51;;;;;;;5.25;3.03;;;;;;;28.61;48.41;100412.25;4995612;28;20038;-62
2023/06/19 10:25:22;;;;;;;6.10;3.17;;;;;;;28.79;48.84;100400.88;4990516;28;20030;-63
2023/06/19 10:27:47;;;;;;;4.78;2.33;;;;;;;29.04;49.70;100405.72;4988765;28;20031;-64
2023/06/19 10:30:19;;;;;;;4.40;2.72;;;;;;;29.39;48.48;100391.72;4977032;28;20058;-61
2023/06/19 10:32:46;;;;;;;4.13;2.65;;;;;;;29.40;49.03;100393.28;4987455;28;20065;-64
2023/06/19 10:35:14;;;;;;;3.78;2.47;;;;;;;29.68;48.00;100391.50;4990709;28;20034;-63
2023/06/19 10:37:41;;;;;;;4.50;2.70;;;;;;;29.75;47.01;100395.88;4987524;28;20429;-63
2023/06/19 10:40:10;;;;;;;3.95;2.75;;;;;;;29.80;47.32;100390.34;4987616;28;20062;-63
2023/06/19 10:42:39;;;;;;;4.47;2.63;;;;;;;29.63;47.90;100397.78;4987228;28;20045;-62
2023/06/19 10:45:09;;;;;;;4.25;2.20;;;;;;;29.64;48.60;100392.94;4969439;28;20034;-62
2023/06/19 10:47:35;;;;;;;5.90;2.95;;;;;;;29.93;46.82;100398.28;4997114;28;20118;-62
2023/06/19 10:50:02;;;;;;;4.38;2.42;;;;;;;30.12;47.53;100396.66;4972573;28;20030;-60
2023/06/19 10:52:31;;;;;;;3.85;2.30;;;;;;;30.04;46.95;100390.78;4980631;28;20031;-62
2023/06/19 10:54:57;;;;;;;4.05;2.42;;;;;;;30.00;47.28;100400.59;4991158;28;20512;-63
2023/06/19 10:57:30;;;;;;;3.50;2.50;;;;;;;30.50;47.01;100396.16;4974615;28;20031;-62
2023/06/19 10:59:56;;;;;;;4.88;2.90;;;;;;;31.09;46.79;100405.25;4992440;28;20051;-61
2023/06/19 11:02:22;;;;;;;3.67;2.33;;;;;;;31.15;45.48;100396.91;4979286;28;20026;-64
2023/06/19 11:04:48;;;;;;;4.07;2.33;;;;;;;31.63;45.39;100402.31;4981435;28;20070;-61
2023/06/19 11:07:14;;;;;;;4.70;2.33;;;;;;;31.96;44.48;100413.47;5001584;28;20064;-63
2023/06/19 11:09:39;;;;;;;4.22;2.80;;;;;;;32.34;43.68;100409.88;4992426;28;20034;-62
2023/06/19 11:12:08;;;;;;;3.95;2.40;;;;;;;32.70;42.73;100396.81;4983904;28;20583;-64
2023/06/19 11:14:39;;;;;;;5.28;2.67;;;;;;;32.53;42.58;100405.28;4992354;28;20030;-63
2023/06/19 11:17:07;;;;;;;4.13;2.40;;;;;;;32.71;41.93;100401.16;4992076;28;20038;-62
2023/06/19 11:19:33;;;;;;;3.67;2.40;;;;;;;32.69;42.69;100396.09;4986013;28;20146;-64
2023/06/19 11:22:02;;;;;;;3.75;2.58;;;;;;;33.01;41.25;100399.25;4990730;28;20035;-60
2023/06/19 11:24:28;;;;;;;2.40;1.92;;;;;;;32.40;40.89;100384.75;4986338;28;20042;-62
2023/06/19 11:26:56;;;;;;;3.63;2.10;;;;;;;32.65;40.36;100389.25;4969884;28;20053;-64